Time;durP1;ratioP1;P1;durP2;ratioP2;P2;SDS_P1;SDS_P2;PMS_P1;PMS_P2;Temp;Humidity;BMP_temperature;BMP_pressure;BME280_temperature;BME280_humidity;BME280_pressure;Samples;Min_cycle;Max_cycle;Signal;HPM_P1;HPM_P2
2021/01/12 00:00:12;;;;;;;16.60;6.35;;;;;;;;;;5008278;28;20030;-73
2021/01/12 00:02:37;;;;;;;21.45;5.38;;;;;;;;;;5040148;28;20024;-74
2021/01/12 00:05:04;;;;;;;15.70;4.95;;;;;;;;;;5018266;28;20108;-73
2021/01/12 00:07:31;;;;;;;19.80;6.07;;;;;;;;;;5017180;28;20067;-74
2021/01/12 00:09:57;;;;;;;18.65;5.90;;;;;;;;;;5017640;28;20119;-73
2021/01/12 00:12:23;;;;;;;13.63;4.90;;;;;;;;;;5017537;28;20112;-73
2021/01/12 00:14:49;;;;;;;15.05;5.07;;;;;;;;;;5026585;28;20499;-73
2021/01/12 00:17:15;;;;;;;14.57;4.97;;;;;;;;;;5021586;28;20034;-74
2021/01/12 00:19:41;;;;;;;13.10;5.13;;;;;;;;;;5033216;28;20036;-74
2021/01/12 00:22:14;;;;;;;17.77;5.65;;;;;;;;;;5033661;28;20112;-74
2021/01/12 00:24:40;;;;;;;13.18;5.22;;;;;;;;;;5025700;28;20489;-74
2021/01/12 00:27:06;;;;;;;13.80;5.00;;;;;;;;;;5016452;28;20156;-73
2021/01/12 00:29:32;;;;;;;16.73;5.10;;;;;;;;;;5028414;28;20124;-74
2021/01/12 00:31:58;;;;;;;15.32;5.40;;;;;;;;;;5018983;28;20443;-74
2021/01/12 00:34:24;;;;;;;15.60;5.35;;;;;;;;;;5028543;28;20021;-73
2021/01/12 00:36:51;;;;;;;16.05;4.57;;;;;;;;;;5017270;28;20112;-74
2021/01/12 00:39:18;;;;;;;18.50;5.65;;;;;;;;;;5018736;28;20114;-73
2021/01/12 00:42:02;;;;;;;13.68;5.07;;;;;;;;;;5014073;28;20467;-72
2021/01/12 00:44:28;;;;;;;20.70;5.40;;;;;;;;;;5019817;28;20109;-74
2021/01/12 00:46:54;;;;;;;18.23;5.80;;;;;;;;;;5020597;28;20026;-73
2021/01/12 00:49:21;;;;;;;16.90;5.07;;;;;;;;;;5016283;28;20025;-74
2021/01/12 00:51:47;;;;;;;17.10;4.50;;;;;;;;;;5018211;28;20481;-73
2021/01/12 00:54:18;;;;;;;15.20;6.10;;;;;;;;;;5020501;28;20083;-73
2021/01/12 00:56:43;;;;;;;;;;;;;;;;;;5021462;28;20061;-73
2021/01/12 00:59:10;;;;;;;20.92;5.32;;;;;;;;;;5015428;28;19957;-74
2021/01/12 01:01:39;;;;;;;18.13;5.47;;;;;;;;;;5013216;28;20112;-74
2021/01/12 01:04:05;;;;;;;15.73;5.63;;;;;;;;;;5013652;28;20104;-73
2021/01/12 01:06:31;;;;;;;17.33;5.80;;;;;;;;;;5030838;28;20041;-73
2021/01/12 01:08:57;;;;;;;18.20;5.75;;;;;;;;;;5017034;28;20387;-73
2021/01/12 01:11:23;;;;;;;14.68;5.13;;;;;;;;;;5016612;28;20094;-74
2021/01/12 01:13:49;;;;;;;17.50;4.22;;;;;;;;;;5015609;28;20026;-73
2021/01/12 01:16:15;;;;;;;20.85;5.88;;;;;;;;;;5011282;28;20030;-73
2021/01/12 01:18:41;;;;;;;24.55;5.63;;;;;;;;;;5031192;28;20033;-73
2021/01/12 01:21:11;;;;;;;25.42;6.40;;;;;;;;;;5010421;28;20395;-73
2021/01/12 01:23:37;;;;;;;20.23;5.47;;;;;;;;;;5033843;28;20148;-73
2021/01/12 01:26:03;;;;;;;24.23;5.35;;;;;;;;;;5029818;28;20570;-74
2021/01/12 01:28:29;;;;;;;25.30;4.75;;;;;;;;;;5020830;28;20221;-73
2021/01/12 01:30:55;;;;;;;32.40;5.03;;;;;;;;;;5023357;28;20495;-73
2021/01/12 01:33:21;;;;;;;22.95;5.20;;;;;;;;;;5011664;28;20036;-73
2021/01/12 01:35:48;;;;;;;24.48;5.38;;;;;;;;;;5039312;28;20040;-74
2021/01/12 01:38:14;;;;;;;25.95;4.72;;;;;;;;;;5025365;28;20395;-73
2021/01/12 01:40:40;;;;;;;28.80;6.28;;;;;;;;;;5039389;28;20033;-73
2021/01/12 01:43:06;;;;;;;25.92;4.80;;;;;;;;;;5034144;28;20037;-73
2021/01/12 01:45:32;;;;;;;26.08;5.57;;;;;;;;;;5015004;28;20041;-72
2021/01/12 01:48:01;;;;;;;26.50;5.20;;;;;;;;;;5022720;28;20061;-72
2021/01/12 01:50:27;;;;;;;19.67;5.45;;;;;;;;;;5016196;28;20379;-72
2021/01/12 01:52:56;;;;;;;25.23;4.50;;;;;;;;;;5033635;28;20021;-72
2021/01/12 01:55:23;;;;;;;22.20;5.60;;;;;;;;;;5029172;28;20040;-73
2021/01/12 01:57:49;;;;;;;22.70;5.85;;;;;;;;;;5029275;28;20821;-72
2021/01/12 02:00:17;;;;;;;19.92;4.30;;;;;;;;;;5029028;28;20536;-72
2021/01/12 02:03:04;;;;;;;18.83;4.93;;;;;;;;;;5029160;28;20108;-73
2021/01/12 02:05:31;;;;;;;17.60;3.45;;;;;;;;;;5009501;28;20038;-72
2021/01/12 02:08:06;;;;;;;25.05;3.75;;;;;;;;;;5009237;28;20026;-72
2021/01/12 02:10:33;;;;;;;19.38;3.75;;;;;;;;;;5019092;28;20083;-72
2021/01/12 02:13:00;;;;;;;26.52;4.47;;;;;;;;;;5028807;28;20104;-72
2021/01/12 02:15:27;;;;;;;15.32;3.80;;;;;;;;;;5028326;28;20033;-72
2021/01/12 02:17:53;;;;;;;24.38;4.72;;;;;;;;;;5028945;28;20029;-72
2021/01/12 02:20:22;;;;;;;25.67;4.53;;;;;;;;;;5043831;28;20079;-72
2021/01/12 02:23:05;;;;;;;20.95;3.72;;;;;;;;;;5024911;28;20022;-72
2021/01/12 02:25:35;;;;;;;21.75;4.90;;;;;;;;;;5028153;28;20028;-72
2021/01/12 02:28:01;;;;;;;19.63;3.33;;;;;;;;;;5014663;28;20104;-72
2021/01/12 02:30:27;;;;;;;21.17;3.33;;;;;;;;;;5027242;28;20048;-72
2021/01/12 02:32:54;;;;;;;26.05;4.30;;;;;;;;;;5028199;28;20017;-73
2021/01/12 02:35:22;;;;;;;19.67;4.28;;;;;;;;;;5028430;28;20036;-72
2021/01/12 02:37:48;;;;;;;20.80;4.10;;;;;;;;;;5014665;28;20395;-73
2021/01/12 02:40:14;;;;;;;20.05;3.92;;;;;;;;;;5026355;28;20108;-73
2021/01/12 02:42:43;;;;;;;21.98;4.40;;;;;;;;;;5017901;28;20505;-72
2021/01/12 02:45:10;;;;;;;18.93;3.63;;;;;;;;;;5029308;28;20443;-72
2021/01/12 02:47:36;;;;;;;21.60;4.63;;;;;;;;;;5022327;28;20033;-73
2021/01/12 02:50:03;;;;;;;21.67;4.10;;;;;;;;;;5022651;28;20089;-73
2021/01/12 02:52:29;;;;;;;24.25;5.15;;;;;;;;;;5030238;28;20085;-72
2021/01/12 02:54:55;;;;;;;26.90;4.63;;;;;;;;;;5031051;28;20045;-72
2021/01/12 02:57:21;;;;;;;21.90;4.68;;;;;;;;;;5028121;28;20039;-72
2021/01/12 02:59:47;;;;;;;18.30;4.07;;;;;;;;;;5013623;28;20036;-72
2021/01/12 03:02:13;;;;;;;20.60;3.70;;;;;;;;;;5041153;28;20083;-72
2021/01/12 03:04:39;;;;;;;23.58;4.32;;;;;;;;;;5056577;28;20032;-73
2021/01/12 03:07:05;;;;;;;31.02;3.70;;;;;;;;;;5040287;28;20014;-72
2021/01/12 03:09:31;;;;;;;16.42;4.00;;;;;;;;;;5038137;28;20037;-72
2021/01/12 03:11:57;;;;;;;18.50;3.33;;;;;;;;;;5030749;28;20029;-72
2021/01/12 03:14:23;;;;;;;21.52;4.07;;;;;;;;;;5028139;28;20083;-72
2021/01/12 03:16:51;;;;;;;20.17;3.50;;;;;;;;;;5026145;28;20130;-72
2021/01/12 03:19:17;;;;;;;13.70;4.03;;;;;;;;;;5016003;28;20025;-72
2021/01/12 03:21:43;;;;;;;21.77;3.55;;;;;;;;;;5027848;28;20100;-72
2021/01/12 03:24:09;;;;;;;22.10;3.78;;;;;;;;;;5021400;28;20108;-73
2021/01/12 03:26:35;;;;;;;13.25;3.25;;;;;;;;;;5016469;28;20376;-72
2021/01/12 03:29:01;;;;;;;10.38;3.85;;;;;;;;;;5021641;28;20140;-72
2021/01/12 03:31:27;;;;;;;19.52;3.50;;;;;;;;;;5018208;28;20061;-73
2021/01/12 03:33:54;;;;;;;21.42;2.83;;;;;;;;;;5013662;28;20077;-72
2021/01/12 03:36:20;;;;;;;23.55;3.83;;;;;;;;;;5027684;28;20096;-72
2021/01/12 03:38:46;;;;;;;15.63;3.33;;;;;;;;;;5029051;28;20468;-72
2021/01/12 03:41:12;;;;;;;19.38;4.45;;;;;;;;;;5033017;28;20502;-72
2021/01/12 03:43:38;;;;;;;31.48;3.60;;;;;;;;;;5043748;28;20025;-73
2021/01/12 03:46:04;;;;;;;23.63;6.13;;;;;;;;;;5015578;28;20345;-73
2021/01/12 03:48:30;;;;;;;27.30;4.15;;;;;;;;;;5028940;28;20248;-72
2021/01/12 03:50:56;;;;;;;18.35;3.78;;;;;;;;;;5026108;28;20037;-72
2021/01/12 03:53:22;;;;;;;22.40;4.30;;;;;;;;;;5026565;28;20029;-72
2021/01/12 03:55:49;;;;;;;25.45;3.47;;;;;;;;;;5017846;28;20159;-72
2021/01/12 03:58:15;;;;;;;19.30;3.45;;;;;;;;;;5023664;28;20044;-72
2021/01/12 04:00:41;;;;;;;16.20;5.03;;;;;;;;;;5038316;28;20020;-72
2021/01/12 04:03:06;;;;;;;19.38;3.80;;;;;;;;;;5022654;28;20034;-72
2021/01/12 04:05:32;;;;;;;23.20;3.80;;;;;;;;;;5039450;28;20037;-72
2021/01/12 04:08:01;;;;;;;18.45;3.55;;;;;;;;;;5041000;28;20037;-72
2021/01/12 04:10:27;;;;;;;27.45;3.95;;;;;;;;;;5025537;28;20553;-72
2021/01/12 04:12:53;;;;;;;20.33;4.03;;;;;;;;;;5032055;28;20029;-72
2021/01/12 04:15:19;;;;;;;22.42;4.00;;;;;;;;;;5024400;28;20037;-72
2021/01/12 04:17:45;;;;;;;17.02;4.10;;;;;;;;;;5011269;28;20029;-73
2021/01/12 04:20:11;;;;;;;15.93;3.30;;;;;;;;;;5019986;28;20055;-72
2021/01/12 04:22:37;;;;;;;17.48;3.10;;;;;;;;;;5042706;28;20027;-72
2021/01/12 04:25:06;;;;;;;22.33;3.78;;;;;;;;;;5027261;28;20018;-72
2021/01/12 04:27:32;;;;;;;19.08;3.50;;;;;;;;;;5046771;28;20116;-73
2021/01/12 04:29:58;;;;;;;17.42;4.35;;;;;;;;;;5021776;28;20122;-72
2021/01/12 04:32:24;;;;;;;18.27;3.50;;;;;;;;;;5028009;28;20113;-73
2021/01/12 04:34:50;;;;;;;22.88;3.13;;;;;;;;;;5030514;28;20477;-72
2021/01/12 04:37:16;;;;;;;16.77;3.10;;;;;;;;;;5028012;28;20034;-72
2021/01/12 04:39:42;;;;;;;24.52;3.88;;;;;;;;;;5018685;28;20113;-73
2021/01/12 04:42:08;;;;;;;25.98;3.53;;;;;;;;;;5032307;28;20079;-72
2021/01/12 04:44:34;;;;;;;17.15;3.92;;;;;;;;;;5041434;28;20386;-72
2021/01/12 04:46:59;;;;;;;18.45;3.13;;;;;;;;;;5045562;28;20021;-72
2021/01/12 04:49:26;;;;;;;18.90;3.17;;;;;;;;;;5029613;28;20495;-72
2021/01/12 04:51:53;;;;;;;24.05;4.50;;;;;;;;;;5015782;28;20028;-72
2021/01/12 04:54:19;;;;;;;25.80;4.47;;;;;;;;;;5020136;28;20026;-72
2021/01/12 04:56:44;;;;;;;23.70;4.32;;;;;;;;;;5010082;28;20402;-72
2021/01/12 04:59:10;;;;;;;20.23;2.88;;;;;;;;;;5021367;28;20057;-72
2021/01/12 05:01:36;;;;;;;13.52;2.42;;;;;;;;;;5028918;28;20104;-72
2021/01/12 05:04:04;;;;;;;11.88;2.15;;;;;;;;;;5018647;28;20029;-72
2021/01/12 05:06:30;;;;;;;13.68;2.13;;;;;;;;;;5029826;28;20030;-72
2021/01/12 05:08:56;;;;;;;13.15;1.98;;;;;;;;;;5028513;28;20106;-72
2021/01/12 05:11:24;;;;;;;20.20;1.92;;;;;;;;;;5030450;28;20109;-72
2021/01/12 05:13:53;;;;;;;10.57;1.83;;;;;;;;;;5034752;28;20111;-72
2021/01/12 05:16:22;;;;;;;15.73;2.85;;;;;;;;;;5038576;28;20102;-72
2021/01/12 05:18:50;;;;;;;14.60;2.10;;;;;;;;;;5043715;28;20368;-72
2021/01/12 05:21:17;;;;;;;8.85;2.45;;;;;;;;;;5045139;28;20294;-72
2021/01/12 05:24:02;;;;;;;16.92;2.33;;;;;;;;;;5023763;28;20391;-72
2021/01/12 05:26:32;;;;;;;20.77;2.45;;;;;;;;;;5017889;28;20502;-72
2021/01/12 05:28:59;;;;;;;12.48;2.45;;;;;;;;;;5026068;28;20025;-72
2021/01/12 05:31:26;;;;;;;13.65;3.05;;;;;;;;;;5029870;28;20491;-72
2021/01/12 05:33:52;;;;;;;12.80;3.00;;;;;;;;;;5044653;28;20089;-72
2021/01/12 05:36:19;;;;;;;22.13;2.60;;;;;;;;;;5049837;28;20095;-72
2021/01/12 05:38:47;;;;;;;19.08;3.20;;;;;;;;;;5035913;28;20057;-72
2021/01/12 05:41:14;;;;;;;19.38;2.72;;;;;;;;;;5035183;28;20471;-72
2021/01/12 05:43:41;;;;;;;37.53;9.25;;;;;;;;;;5027345;28;20165;-72
2021/01/12 05:46:07;;;;;;;13.38;1.95;;;;;;;;;;5023728;28;20044;-72
2021/01/12 05:48:35;;;;;;;15.02;2.25;;;;;;;;;;5029441;28;20033;-72
2021/01/12 05:51:03;;;;;;;17.63;2.13;;;;;;;;;;5029739;28;20036;-72
2021/01/12 05:53:43;;;;;;;17.08;2.38;;;;;;;;;;5043673;28;20036;-72
2021/01/12 05:56:11;;;;;;;13.73;2.03;;;;;;;;;;5029214;28;20029;-72
2021/01/12 05:58:42;;;;;;;23.73;2.38;;;;;;;;;;5029234;28;20040;-72
2021/01/12 06:01:09;;;;;;;15.82;2.60;;;;;;;;;;5028288;28;20075;-72
2021/01/12 06:03:35;;;;;;;17.95;2.03;;;;;;;;;;5029148;28;20029;-72
2021/01/12 06:06:01;;;;;;;20.17;2.53;;;;;;;;;;5029799;28;20526;-72
2021/01/12 06:08:28;;;;;;;20.33;2.75;;;;;;;;;;5028349;28;20488;-72
2021/01/12 06:10:54;;;;;;;21.65;3.22;;;;;;;;;;5029267;28;20041;-72
2021/01/12 06:13:20;;;;;;;18.73;2.20;;;;;;;;;;5014924;28;20029;-73
2021/01/12 06:15:49;;;;;;;16.02;2.10;;;;;;;;;;5040779;28;20041;-73
2021/01/12 06:18:16;;;;;;;14.02;1.83;;;;;;;;;;5012448;28;20387;-72
2021/01/12 06:21:05;;;;;;;15.73;1.77;;;;;;;;;;5031265;28;20124;-73
2021/01/12 06:23:38;;;;;;;19.20;1.90;;;;;;;;;;5018333;28;20041;-73
2021/01/12 06:26:04;;;;;;;13.07;1.70;;;;;;;;;;5028571;28;20048;-73
2021/01/12 06:28:30;;;;;;;12.23;1.70;;;;;;;;;;5027494;28;20041;-73
2021/01/12 06:30:56;;;;;;;9.25;1.50;;;;;;;;;;5028432;28;20034;-73
2021/01/12 06:33:22;;;;;;;12.90;2.55;;;;;;;;;;5043978;28;20033;-73
2021/01/12 06:35:51;;;;;;;13.52;2.28;;;;;;;;;;5016168;28;20029;-73
2021/01/12 06:38:20;;;;;;;11.23;1.52;;;;;;;;;;5027028;28;20034;-72
2021/01/12 06:40:51;;;;;;;9.60;1.42;;;;;;;;;;5024330;28;20025;-73
2021/01/12 06:43:18;;;;;;;10.40;1.52;;;;;;;;;;5009243;28;20487;-73
2021/01/12 06:45:45;;;;;;;11.07;2.13;;;;;;;;;;5042826;28;20048;-73
2021/01/12 06:48:14;;;;;;;10.65;2.10;;;;;;;;;;5043260;28;20030;-73
2021/01/12 06:50:40;;;;;;;11.93;1.20;;;;;;;;;;5028596;28;20040;-73
2021/01/12 06:53:06;;;;;;;13.52;1.23;;;;;;;;;;5014535;28;20484;-73
2021/01/12 06:55:31;;;;;;;7.88;1.02;;;;;;;;;;5044363;28;20033;-72
2021/01/12 06:58:00;;;;;;;10.23;1.20;;;;;;;;;;5027620;28;20479;-73
2021/01/12 07:00:27;;;;;;;10.63;1.90;;;;;;;;;;5022778;28;20022;-73
2021/01/12 07:02:56;;;;;;;10.02;1.10;;;;;;;;;;5016727;28;20485;-72
2021/01/12 07:05:22;;;;;;;7.97;1.55;;;;;;;;;;5020578;28;20041;-73
2021/01/12 07:07:50;;;;;;;8.35;1.58;;;;;;;;;;5029616;28;20021;-72
2021/01/12 07:10:23;;;;;;;16.92;1.63;;;;;;;;;;5025827;28;20030;-73
2021/01/12 07:12:50;;;;;;;10.65;3.63;;;;;;;;;;5020894;28;20034;-73
2021/01/12 07:15:17;;;;;;;12.07;2.30;;;;;;;;;;5020363;28;20137;-73
2021/01/12 07:17:44;;;;;;;8.48;1.70;;;;;;;;;;5016398;28;20387;-72
2021/01/12 07:20:11;;;;;;;11.55;2.15;;;;;;;;;;5024319;28;20030;-72
2021/01/12 07:22:38;;;;;;;6.30;1.75;;;;;;;;;;5029639;28;20049;-72
2021/01/12 07:25:06;;;;;;;9.40;1.08;;;;;;;;;;5015007;28;20124;-72
2021/01/12 07:27:32;;;;;;;11.88;1.45;;;;;;;;;;5021076;28;20025;-72
2021/01/12 07:29:59;;;;;;;2.90;0.50;;;;;;;;;;5024214;28;20037;-72
2021/01/12 07:32:25;;;;;;;1.70;0.50;;;;;;;;;;5015968;28;20036;-72
2021/01/12 07:34:54;;;;;;;4.93;0.90;;;;;;;;;;5020659;28;20025;-73
2021/01/12 07:37:25;;;;;;;6.10;1.30;;;;;;;;;;5018219;28;20041;-72
2021/01/12 07:39:51;;;;;;;6.28;1.50;;;;;;;;;;5012602;28;20030;-72
2021/01/12 07:42:17;;;;;;;5.80;1.77;;;;;;;;;;5032319;28;20546;-74
2021/01/12 07:44:43;;;;;;;6.72;1.63;;;;;;;;;;5021245;28;20380;-72
2021/01/12 07:47:09;;;;;;;9.50;2.10;;;;;;;;;;5021335;28;20029;-72
2021/01/12 07:49:35;;;;;;;10.60;2.60;;;;;;;;;;5017399;28;20025;-73
2021/01/12 07:52:01;;;;;;;11.93;2.78;;;;;;;;;;5038431;28;20017;-73
2021/01/12 07:54:28;;;;;;;10.25;2.63;;;;;;;;;;5038929;28;20029;-74
2021/01/12 07:56:55;;;;;;;9.82;3.53;;;;;;;;;;5055083;28;20030;-75
2021/01/12 07:59:22;;;;;;;5.07;1.60;;;;;;;;;;5030277;28;20034;-74
2021/01/12 08:01:48;;;;;;;6.60;1.17;;;;;;;;;;5029611;28;20053;-73
2021/01/12 08:04:14;;;;;;;7.38;1.92;;;;;;;;;;5039841;28;20033;-73
2021/01/12 08:06:41;;;;;;;9.45;0.68;;;;;;;;;;5048580;28;20075;-72
2021/01/12 08:09:07;;;;;;;6.85;0.93;;;;;;;;;;5017137;28;20095;-73
2021/01/12 08:11:34;;;;;;;6.18;1.00;;;;;;;;;;5047087;28;20045;-73
2021/01/12 08:14:04;;;;;;;12.23;1.40;;;;;;;;;;5019633;28;20022;-72
2021/01/12 08:16:30;;;;;;;5.05;0.95;;;;;;;;;;5018418;28;20030;-72
2021/01/12 08:18:56;;;;;;;6.50;1.10;;;;;;;;;;5050080;28;20056;-73
2021/01/12 08:21:22;;;;;;;10.32;1.40;;;;;;;;;;5043929;28;20478;-72
2021/01/12 08:23:48;;;;;;;7.72;1.33;;;;;;;;;;5050556;28;20052;-73
2021/01/12 08:26:14;;;;;;;12.43;1.40;;;;;;;;;;5055595;28;20064;-72
2021/01/12 08:28:45;;;;;;;7.78;1.17;;;;;;;;;;5053941;28;20018;-72
2021/01/12 08:31:11;;;;;;;;;;;;;;;;;;5072044;28;20030;-73
2021/01/12 08:33:39;;;;;;;9.27;0.75;;;;;;;;;;5051890;28;19917;-73
2021/01/12 08:36:07;;;;;;;7.82;1.23;;;;;;;;;;5033047;28;20017;-72
2021/01/12 08:38:34;;;;;;;6.45;1.33;;;;;;;;;;5031580;28;20026;-72
2021/01/12 08:41:04;;;;;;;13.63;1.27;;;;;;;;;;5034717;28;20120;-72
2021/01/12 08:43:31;;;;;;;6.68;0.98;;;;;;;;;;5053632;28;20002;-72
2021/01/12 08:46:00;;;;;;;8.35;1.40;;;;;;;;;;5035612;28;20280;-74
2021/01/12 08:48:26;;;;;;;11.33;1.27;;;;;;;;;;5049736;28;20057;-74
2021/01/12 08:50:52;;;;;;;6.28;1.05;;;;;;;;;;5052515;28;20022;-74
2021/01/12 08:53:18;;;;;;;18.85;1.85;;;;;;;;;;5044558;28;20039;-74
2021/01/12 08:55:44;;;;;;;4.93;0.90;;;;;;;;;;5038982;28;20033;-73
2021/01/12 08:58:11;;;;;;;6.82;1.10;;;;;;;;;;5032938;28;20038;-72
2021/01/12 09:00:37;;;;;;;9.35;1.02;;;;;;;;;;5024837;28;20022;-73
2021/01/12 09:03:04;;;;;;;8.48;0.55;;;;;;;;;;5023972;28;20022;-72
2021/01/12 09:05:51;;;;;;;7.35;1.40;;;;;;;;;;5028917;28;20029;-73
2021/01/12 09:08:17;;;;;;;8.32;0.85;;;;;;;;;;5019783;28;20061;-73
2021/01/12 09:10:44;;;;;;;15.25;2.70;;;;;;;;;;5056587;28;20447;-72
2021/01/12 09:13:10;;;;;;;7.70;1.13;;;;;;;;;;5041267;28;20029;-73
2021/01/12 09:15:48;;;;;;;8.57;0.70;;;;;;;;;;5026210;28;20076;-72
2021/01/12 09:18:21;;;;;;;6.63;0.75;;;;;;;;;;5019899;28;21956;-72
2021/01/12 09:21:06;;;;;;;13.15;1.10;;;;;;;;;;5021372;28;20036;-73
2021/01/12 09:23:32;;;;;;;6.65;0.70;;;;;;;;;;5023323;28;20109;-73
2021/01/12 09:26:02;;;;;;;8.80;1.73;;;;;;;;;;5028482;28;20025;-72
2021/01/12 09:28:32;;;;;;;4.18;0.88;;;;;;;;;;5024607;28;20083;-72
2021/01/12 09:31:09;;;;;;;10.07;0.95;;;;;;;;;;5031205;28;20096;-72
2021/01/12 09:33:36;;;;;;;7.47;1.40;;;;;;;;;;5043944;28;20135;-72
2021/01/12 09:36:06;;;;;;;11.52;2.20;;;;;;;;;;5023435;28;20452;-73
2021/01/12 09:38:45;;;;;;;13.50;2.08;;;;;;;;;;5030543;28;20033;-74
2021/01/12 09:41:12;;;;;;;4.97;0.90;;;;;;;;;;5015222;28;20049;-73
2021/01/12 09:43:38;;;;;;;7.88;0.65;;;;;;;;;;5038378;28;20030;-70
2021/01/12 09:46:04;;;;;;;15.73;1.25;;;;;;;;;;5038679;28;20037;-73
2021/01/12 09:48:30;;;;;;;2.60;0.50;;;;;;;;;;5020057;28;20052;-73
2021/01/12 09:50:56;;;;;;;8.65;0.80;;;;;;;;;;5046215;28;20071;-74
2021/01/12 09:53:23;;;;;;;9.98;1.35;;;;;;;;;;5011934;28;20040;-72
2021/01/12 09:55:49;;;;;;;9.15;0.68;;;;;;;;;;5022253;28;20040;-72
2021/01/12 09:58:15;;;;;;;5.85;1.00;;;;;;;;;;5015042;28;20037;-72
2021/01/12 10:00:41;;;;;;;13.88;0.88;;;;;;;;;;5018424;28;20060;-73
2021/01/12 10:03:07;;;;;;;6.15;0.57;;;;;;;;;;5029322;28;20037;-73
2021/01/12 10:05:39;;;;;;;6.85;0.60;;;;;;;;;;5015309;28;20522;-72
2021/01/12 10:08:05;;;;;;;10.75;0.70;;;;;;;;;;5009323;28;20109;-73
2021/01/12 10:10:31;;;;;;;4.90;1.10;;;;;;;;;;5015506;28;20516;-72
2021/01/12 10:12:57;;;;;;;7.05;0.80;;;;;;;;;;5021634;28;20103;-73
2021/01/12 10:15:23;;;;;;;9.27;0.98;;;;;;;;;;5032879;28;20112;-74
2021/01/12 10:17:50;;;;;;;4.70;0.63;;;;;;;;;;5033916;28;20026;-73
2021/01/12 10:20:16;;;;;;;6.07;1.20;;;;;;;;;;5017064;28;20301;-73
2021/01/12 10:22:42;;;;;;;12.43;1.15;;;;;;;;;;5009796;28;20084;-74
2021/01/12 10:25:08;;;;;;;6.78;0.90;;;;;;;;;;5016049;28;20466;-74
2021/01/12 10:27:36;;;;;;;8.20;2.25;;;;;;;;;;5032969;28;20476;-73
2021/01/12 10:30:02;;;;;;;7.70;1.10;;;;;;;;;;5013589;28;20026;-74
2021/01/12 10:32:28;;;;;;;10.50;1.38;;;;;;;;;;5030341;28;20056;-73
2021/01/12 10:34:57;;;;;;;7.97;1.25;;;;;;;;;;5030143;28;20491;-74
2021/01/12 10:37:23;;;;;;;6.70;0.90;;;;;;;;;;5013192;28;20037;-73
2021/01/12 10:39:50;;;;;;;8.63;1.13;;;;;;;;;;5014700;28;20036;-73
2021/01/12 10:42:15;;;;;;;11.32;1.83;;;;;;;;;;5019018;28;20096;-74
2021/01/12 10:44:44;;;;;;;6.47;1.45;;;;;;;;;;5033282;28;20549;-73
2021/01/12 10:47:10;;;;;;;8.73;1.33;;;;;;;;;;5016546;28;20018;-74
2021/01/12 10:49:36;;;;;;;5.70;1.13;;;;;;;;;;5024231;28;20676;-74
2021/01/12 10:52:04;;;;;;;7.25;1.20;;;;;;;;;;5023439;28;20144;-77
2021/01/12 10:54:30;;;;;;;12.25;1.70;;;;;;;;;;5008428;28;20495;-76
2021/01/12 10:56:56;;;;;;;7.63;0.85;;;;;;;;;;5015428;28;20040;-75
2021/01/12 10:59:23;;;;;;;9.23;1.50;;;;;;;;;;5035566;28;20029;-74
2021/01/12 11:01:53;;;;;;;6.07;0.95;;;;;;;;;;5010874;28;20090;-74
2021/01/12 11:04:22;;;;;;;4.88;1.75;;;;;;;;;;5010873;28;20444;-73
2021/01/12 11:06:51;;;;;;;6.05;0.85;;;;;;;;;;5031604;28;20188;-74
2021/01/12 11:09:17;;;;;;;6.28;0.70;;;;;;;;;;5030722;28;20034;-74
2021/01/12 11:11:43;;;;;;;11.75;1.45;;;;;;;;;;5018946;28;20104;-74
2021/01/12 11:14:09;;;;;;;5.80;1.17;;;;;;;;;;5013819;28;20037;-74
2021/01/12 11:16:36;;;;;;;6.25;1.17;;;;;;;;;;5040802;28;20112;-75
2021/01/12 11:19:02;;;;;;;8.68;1.42;;;;;;;;;;5028882;28;20061;-75
2021/01/12 11:21:29;;;;;;;7.82;1.02;;;;;;;;;;5026615;28;20017;-75
2021/01/12 11:23:55;;;;;;;5.47;0.63;;;;;;;;;;5020330;28;20471;-75
2021/01/12 11:26:31;;;;;;;6.93;0.88;;;;;;;;;;5035045;28;20036;-75
2021/01/12 11:28:57;;;;;;;9.27;0.77;;;;;;;;;;5033654;28;20030;-75
2021/01/12 11:31:24;;;;;;;6.22;1.30;;;;;;;;;;5041380;28;20033;-75
2021/01/12 11:33:50;;;;;;;8.45;1.25;;;;;;;;;;5042900;28;20033;-72
2021/01/12 11:36:16;;;;;;;6.95;1.33;;;;;;;;;;5030235;28;20398;-72
2021/01/12 11:38:42;;;;;;;4.97;0.93;;;;;;;;;;5019381;28;20028;-72
2021/01/12 11:41:09;;;;;;;8.18;1.10;;;;;;;;;;5016870;28;20033;-72
2021/01/12 11:43:35;;;;;;;4.35;0.90;;;;;;;;;;5021726;28;20498;-71
2021/01/12 11:46:01;;;;;;;11.73;1.40;;;;;;;;;;5007911;28;20529;-73
2021/01/12 11:48:27;;;;;;;6.38;0.75;;;;;;;;;;5013170;28;20029;-73
2021/01/12 11:50:53;;;;;;;5.47;0.77;;;;;;;;;;5027995;28;20024;-72
2021/01/12 11:53:19;;;;;;;9.63;0.90;;;;;;;;;;5023519;28;20029;-73
2021/01/12 11:55:45;;;;;;;9.15;1.17;;;;;;;;;;5018319;28;20091;-72
2021/01/12 11:58:11;;;;;;;6.82;1.00;;;;;;;;;;5027470;28;20032;-74
2021/01/12 12:00:38;;;;;;;7.57;1.35;;;;;;;;;;5038177;28;20040;-73
2021/01/12 12:03:04;;;;;;;13.52;1.15;;;;;;;;;;5045466;28;20383;-73
2021/01/12 12:05:30;;;;;;;10.85;1.15;;;;;;;;;;5039663;28;20076;-72
2021/01/12 12:07:56;;;;;;;4.75;0.93;;;;;;;;;;5030432;28;20511;-73
2021/01/12 12:10:22;;;;;;;11.43;1.15;;;;;;;;;;5032947;28;20123;-72
2021/01/12 12:12:48;;;;;;;9.80;1.60;;;;;;;;;;5030194;28;20387;-72
2021/01/12 12:15:14;;;;;;;6.72;0.80;;;;;;;;;;5027433;28;20039;-74
2021/01/12 12:17:40;;;;;;;5.30;0.63;;;;;;;;;;5025409;28;20037;-74
2021/01/12 12:20:06;;;;;;;12.63;1.85;;;;;;;;;;5022069;28;20363;-75
2021/01/12 12:22:32;;;;;;;7.50;0.90;;;;;;;;;;5014860;28;20032;-72
2021/01/12 12:24:58;;;;;;;3.55;1.20;;;;;;;;;;5027633;28;20093;-73
2021/01/12 12:27:25;;;;;;;5.05;0.60;;;;;;;;;;5022029;28;20146;-73
2021/01/12 12:29:51;;;;;;;5.60;0.52;;;;;;;;;;5025303;28;20682;-73
2021/01/12 12:32:17;;;;;;;6.63;1.52;;;;;;;;;;5032429;28;20036;-73
2021/01/12 12:34:43;;;;;;;5.72;0.52;;;;;;;;;;5027440;28;20022;-73
2021/01/12 12:37:12;;;;;;;7.50;1.00;;;;;;;;;;5029620;28;20029;-75
2021/01/12 12:39:38;;;;;;;7.30;0.80;;;;;;;;;;5022699;28;20038;-75
2021/01/12 12:42:04;;;;;;;6.43;0.73;;;;;;;;;;5017715;28;20269;-73
2021/01/12 12:44:32;;;;;;;10.10;0.80;;;;;;;;;;5036788;28;20482;-75
2021/01/12 12:46:58;;;;;;;8.52;0.93;;;;;;;;;;5040859;28;20041;-74
2021/01/12 12:49:24;;;;;;;6.50;1.52;;;;;;;;;;5043473;28;20394;-73
2021/01/12 12:51:50;;;;;;;6.03;1.88;;;;;;;;;;5049964;28;20021;-75
2021/01/12 12:54:17;;;;;;;8.60;0.60;;;;;;;;;;5025287;28;20034;-75
2021/01/12 12:56:43;;;;;;;7.60;0.80;;;;;;;;;;5044453;28;20031;-75
2021/01/12 12:59:09;;;;;;;6.15;1.45;;;;;;;;;;5050367;28;20040;-75
2021/01/12 13:01:35;;;;;;;4.45;0.85;;;;;;;;;;5046631;28;20508;-73
2021/01/12 13:04:01;;;;;;;7.50;1.20;;;;;;;;;;5028655;28;20309;-73
2021/01/12 13:06:28;;;;;;;4.63;0.95;;;;;;;;;;5013838;28;20663;-73
2021/01/12 13:08:54;;;;;;;4.38;0.80;;;;;;;;;;5020180;28;20116;-78
2021/01/12 13:11:21;;;;;;;8.68;1.38;;;;;;;;;;5015933;28;20037;-75
2021/01/12 13:13:47;;;;;;;15.55;1.15;;;;;;;;;;5016551;28;20054;-75
2021/01/12 13:16:13;;;;;;;4.82;1.05;;;;;;;;;;5013144;28;20073;-75
2021/01/12 13:18:42;;;;;;;12.27;1.23;;;;;;;;;;5034344;28;20479;-75
2021/01/12 13:21:09;;;;;;;8.68;1.20;;;;;;;;;;5034096;28;20034;-75
2021/01/12 13:23:35;;;;;;;17.67;1.60;;;;;;;;;;5022737;28;20415;-73
2021/01/12 13:26:01;;;;;;;10.10;1.05;;;;;;;;;;5015191;28;20025;-73
2021/01/12 13:28:27;;;;;;;7.35;1.23;;;;;;;;;;5018800;28;20033;-73
2021/01/12 13:30:54;;;;;;;9.07;1.10;;;;;;;;;;5011780;28;20544;-74
2021/01/12 13:33:20;;;;;;;6.88;1.13;;;;;;;;;;5012217;28;20471;-74
2021/01/12 13:35:46;;;;;;;11.23;1.60;;;;;;;;;;5012199;28;20026;-73
2021/01/12 13:38:12;;;;;;;10.10;1.65;;;;;;;;;;5014767;28;20026;-74
2021/01/12 13:40:38;;;;;;;7.28;1.45;;;;;;;;;;5015083;28;20478;-74
2021/01/12 13:43:04;;;;;;;10.18;1.50;;;;;;;;;;5016397;28;20017;-73
2021/01/12 13:45:31;;;;;;;8.38;1.13;;;;;;;;;;5019667;28;20383;-73
2021/01/12 13:47:57;;;;;;;7.13;0.93;;;;;;;;;;5031981;28;20245;-74
2021/01/12 13:50:24;;;;;;;11.57;1.15;;;;;;;;;;5017895;28;20026;-74
2021/01/12 13:52:50;;;;;;;16.23;1.58;;;;;;;;;;5029533;28;20057;-74
2021/01/12 13:55:17;;;;;;;8.75;2.10;;;;;;;;;;5025965;28;20061;-74
2021/01/12 13:57:50;;;;;;;10.32;1.38;;;;;;;;;;5012010;28;20857;-73
2021/01/12 14:00:16;;;;;;;11.77;1.90;;;;;;;;;;5019759;28;20025;-78
2021/01/12 14:02:42;;;;;;;10.60;1.50;;;;;;;;;;5038172;28;20047;-75
2021/01/12 14:05:08;;;;;;;5.55;0.85;;;;;;;;;;5022088;28;20024;-75
2021/01/12 14:07:34;;;;;;;10.27;1.13;;;;;;;;;;5012772;28;20458;-74
2021/01/12 14:10:00;;;;;;;5.93;0.70;;;;;;;;;;5015422;28;20030;-75
2021/01/12 14:12:26;;;;;;;7.72;1.00;;;;;;;;;;5041936;28;20095;-75
2021/01/12 14:14:52;;;;;;;6.60;1.20;;;;;;;;;;5029632;28;20032;-74
2021/01/12 14:17:19;;;;;;;4.43;1.10;;;;;;;;;;5025607;28;20129;-77
2021/01/12 14:19:46;;;;;;;4.75;0.82;;;;;;;;;;5017823;28;20034;-75
2021/01/12 14:22:13;;;;;;;6.13;0.82;;;;;;;;;;5019355;28;20570;-74
2021/01/12 14:24:39;;;;;;;8.90;1.38;;;;;;;;;;5029102;28;20565;-76
2021/01/12 14:27:12;;;;;;;4.53;0.95;;;;;;;;;;5026558;28;20025;-75
2021/01/12 14:29:39;;;;;;;6.88;0.98;;;;;;;;;;5022942;28;20033;-75
2021/01/12 14:32:05;;;;;;;5.47;0.90;;;;;;;;;;5031037;28;20459;-75
2021/01/12 14:34:31;;;;;;;11.20;2.13;;;;;;;;;;5028488;28;20033;-75